sensor_id;sensor_type;location;lat;lon;timestamp;P1;durP1;ratioP1;P2;durP2;ratioP2
43998;SDS011;51319;52.162;5.302;2022-07-09T00:00:53;10.15;;;4.50;;
43998;SDS011;51319;52.162;5.302;2022-07-09T00:03:20;5.53;;;4.35;;
43998;SDS011;51319;52.162;5.302;2022-07-09T00:05:46;7.82;;;5.18;;
43998;SDS011;51319;52.162;5.302;2022-07-09T00:08:12;12.38;;;4.95;;
43998;SDS011;51319;52.162;5.302;2022-07-09T00:10:38;10.27;;;4.95;;
43998;SDS011;51319;52.162;5.302;2022-07-09T00:13:04;9.40;;;6.10;;
43998;SDS011;51319;52.162;5.302;2022-07-09T00:15:31;10.40;;;5.30;;
43998;SDS011;51319;52.162;5.302;2022-07-09T00:17:57;8.27;;;5.20;;
43998;SDS011;51319;52.162;5.302;2022-07-09T00:20:24;12.05;;;5.07;;
43998;SDS011;51319;52.162;5.302;2022-07-09T00:22:51;11.25;;;5.38;;
43998;SDS011;51319;52.162;5.302;2022-07-09T00:25:17;9.65;;;5.03;;
43998;SDS011;51319;52.162;5.302;2022-07-09T00:27:43;9.65;;;5.45;;
43998;SDS011;51319;52.162;5.302;2022-07-09T00:30:09;10.57;;;5.40;;
43998;SDS011;51319;52.162;5.302;2022-07-09T00:32:36;8.90;;;4.88;;
43998;SDS011;51319;52.162;5.302;2022-07-09T00:35:02;10.00;;;5.70;;
43998;SDS011;51319;52.162;5.302;2022-07-09T00:37:29;9.52;;;5.45;;
43998;SDS011;51319;52.162;5.302;2022-07-09T00:39:55;8.77;;;4.20;;
43998;SDS011;51319;52.162;5.302;2022-07-09T00:42:21;11.43;;;4.05;;
43998;SDS011;51319;52.162;5.302;2022-07-09T00:44:48;7.72;;;4.40;;
43998;SDS011;51319;52.162;5.302;2022-07-09T00:47:14;6.97;;;4.63;;
43998;SDS011;51319;52.162;5.302;2022-07-09T00:49:41;6.47;;;4.50;;
43998;SDS011;51319;52.162;5.302;2022-07-09T00:52:09;11.52;;;5.18;;
43998;SDS011;51319;52.162;5.302;2022-07-09T00:54:37;12.15;;;4.63;;
43998;SDS011;51319;52.162;5.302;2022-07-09T00:57:05;7.50;;;4.32;;
43998;SDS011;51319;52.162;5.302;2022-07-09T00:59:33;7.70;;;4.60;;
43998;SDS011;51319;52.162;5.302;2022-07-09T01:02:01;8.60;;;4.70;;
43998;SDS011;51319;52.162;5.302;2022-07-09T01:04:28;7.93;;;5.93;;
43998;SDS011;51319;52.162;5.302;2022-07-09T01:06:55;11.13;;;6.10;;
43998;SDS011;51319;52.162;5.302;2022-07-09T01:09:24;11.18;;;6.47;;
43998;SDS011;51319;52.162;5.302;2022-07-09T01:11:51;11.52;;;6.32;;
43998;SDS011;51319;52.162;5.302;2022-07-09T01:14:17;11.18;;;7.05;;
43998;SDS011;51319;52.162;5.302;2022-07-09T01:16:44;8.85;;;7.25;;
43998;SDS011;51319;52.162;5.302;2022-07-09T01:19:10;15.38;;;9.00;;
43998;SDS011;51319;52.162;5.302;2022-07-09T01:21:37;13.10;;;9.38;;
43998;SDS011;51319;52.162;5.302;2022-07-09T01:24:03;17.65;;;10.68;;
43998;SDS011;51319;52.162;5.302;2022-07-09T01:26:30;19.85;;;10.80;;
43998;SDS011;51319;52.162;5.302;2022-07-09T01:28:56;15.05;;;9.18;;
43998;SDS011;51319;52.162;5.302;2022-07-09T01:31:22;16.48;;;9.77;;
43998;SDS011;51319;52.162;5.302;2022-07-09T01:33:49;16.25;;;9.48;;
43998;SDS011;51319;52.162;5.302;2022-07-09T01:36:15;15.90;;;9.98;;
43998;SDS011;51319;52.162;5.302;2022-07-09T01:38:42;17.02;;;11.05;;
43998;SDS011;51319;52.162;5.302;2022-07-09T01:41:09;14.18;;;11.38;;
43998;SDS011;51319;52.162;5.302;2022-07-09T01:43:36;13.15;;;10.10;;
43998;SDS011;51319;52.162;5.302;2022-07-09T01:46:02;16.52;;;10.15;;
43998;SDS011;51319;52.162;5.302;2022-07-09T01:48:28;15.90;;;10.35;;
43998;SDS011;51319;52.162;5.302;2022-07-09T01:50:55;16.38;;;10.10;;
43998;SDS011;51319;52.162;5.302;2022-07-09T01:53:24;16.50;;;10.73;;
43998;SDS011;51319;52.162;5.302;2022-07-09T01:55:50;20.75;;;11.48;;
43998;SDS011;51319;52.162;5.302;2022-07-09T01:58:16;18.92;;;11.75;;
43998;SDS011;51319;52.162;5.302;2022-07-09T02:00:42;17.85;;;11.27;;
43998;SDS011;51319;52.162;5.302;2022-07-09T02:03:09;16.90;;;12.40;;
43998;SDS011;51319;52.162;5.302;2022-07-09T02:05:35;17.90;;;12.70;;
43998;SDS011;51319;52.162;5.302;2022-07-09T02:08:02;19.92;;;13.80;;
43998;SDS011;51319;52.162;5.302;2022-07-09T02:10:28;19.17;;;13.32;;
43998;SDS011;51319;52.162;5.302;2022-07-09T02:12:54;19.60;;;13.95;;
43998;SDS011;51319;52.162;5.302;2022-07-09T02:15:21;22.67;;;14.57;;
43998;SDS011;51319;52.162;5.302;2022-07-09T02:17:47;23.10;;;14.95;;
43998;SDS011;51319;52.162;5.302;2022-07-09T02:20:13;21.27;;;14.75;;
43998;SDS011;51319;52.162;5.302;2022-07-09T02:22:40;28.63;;;16.27;;
43998;SDS011;51319;52.162;5.302;2022-07-09T02:25:06;24.33;;;17.33;;
43998;SDS011;51319;52.162;5.302;2022-07-09T02:27:33;28.23;;;16.77;;
43998;SDS011;51319;52.162;5.302;2022-07-09T02:29:59;25.42;;;17.38;;
43998;SDS011;51319;52.162;5.302;2022-07-09T02:32:26;23.35;;;16.55;;
43998;SDS011;51319;52.162;5.302;2022-07-09T02:34:52;24.33;;;16.98;;
43998;SDS011;51319;52.162;5.302;2022-07-09T02:37:18;28.45;;;17.65;;
43998;SDS011;51319;52.162;5.302;2022-07-09T02:39:44;25.08;;;16.42;;
43998;SDS011;51319;52.162;5.302;2022-07-09T02:42:11;24.35;;;16.38;;
43998;SDS011;51319;52.162;5.302;2022-07-09T02:44:37;23.33;;;16.45;;
43998;SDS011;51319;52.162;5.302;2022-07-09T02:47:03;26.90;;;17.08;;
43998;SDS011;51319;52.162;5.302;2022-07-09T02:49:29;25.40;;;16.20;;
43998;SDS011;51319;52.162;5.302;2022-07-09T02:51:55;26.88;;;17.88;;
43998;SDS011;51319;52.162;5.302;2022-07-09T02:54:23;27.45;;;18.48;;
43998;SDS011;51319;52.162;5.302;2022-07-09T02:56:49;31.15;;;18.40;;
43998;SDS011;51319;52.162;5.302;2022-07-09T02:59:16;30.13;;;19.15;;
43998;SDS011;51319;52.162;5.302;2022-07-09T03:01:42;31.00;;;20.05;;
43998;SDS011;51319;52.162;5.302;2022-07-09T03:04:08;26.08;;;18.30;;
43998;SDS011;51319;52.162;5.302;2022-07-09T03:06:35;23.45;;;16.88;;
43998;SDS011;51319;52.162;5.302;2022-07-09T03:09:01;29.35;;;18.70;;
43998;SDS011;51319;52.162;5.302;2022-07-09T03:11:27;27.45;;;19.70;;
43998;SDS011;51319;52.162;5.302;2022-07-09T03:13:54;25.50;;;16.55;;
43998;SDS011;51319;52.162;5.302;2022-07-09T03:16:20;31.38;;;17.95;;
43998;SDS011;51319;52.162;5.302;2022-07-09T03:18:46;21.23;;;14.75;;
43998;SDS011;51319;52.162;5.302;2022-07-09T03:21:12;23.15;;;15.38;;
43998;SDS011;51319;52.162;5.302;2022-07-09T03:23:39;23.48;;;15.07;;
43998;SDS011;51319;52.162;5.302;2022-07-09T03:26:05;24.15;;;15.20;;
43998;SDS011;51319;52.162;5.302;2022-07-09T03:28:32;22.05;;;14.40;;
43998;SDS011;51319;52.162;5.302;2022-07-09T03:31:00;23.48;;;14.43;;
43998;SDS011;51319;52.162;5.302;2022-07-09T03:33:27;19.48;;;13.80;;
43998;SDS011;51319;52.162;5.302;2022-07-09T03:35:54;19.95;;;14.65;;
43998;SDS011;51319;52.162;5.302;2022-07-09T03:38:23;24.63;;;15.82;;
43998;SDS011;51319;52.162;5.302;2022-07-09T03:40:50;30.90;;;16.90;;
43998;SDS011;51319;52.162;5.302;2022-07-09T03:43:18;38.72;;;18.88;;
43998;SDS011;51319;52.162;5.302;2022-07-09T03:45:44;37.72;;;18.77;;
43998;SDS011;51319;52.162;5.302;2022-07-09T03:48:11;39.08;;;19.35;;
43998;SDS011;51319;52.162;5.302;2022-07-09T03:50:37;46.08;;;20.77;;
43998;SDS011;51319;52.162;5.302;2022-07-09T03:53:04;54.08;;;22.48;;
43998;SDS011;51319;52.162;5.302;2022-07-09T03:55:30;53.78;;;23.30;;
43998;SDS011;51319;52.162;5.302;2022-07-09T03:57:56;55.22;;;23.52;;
43998;SDS011;51319;52.162;5.302;2022-07-09T04:00:22;52.95;;;25.13;;
43998;SDS011;51319;52.162;5.302;2022-07-09T04:02:49;51.67;;;25.77;;
43998;SDS011;51319;52.162;5.302;2022-07-09T04:05:15;46.50;;;24.48;;
43998;SDS011;51319;52.162;5.302;2022-07-09T04:07:42;55.80;;;28.00;;
43998;SDS011;51319;52.162;5.302;2022-07-09T04:10:08;73.22;;;28.70;;
43998;SDS011;51319;52.162;5.302;2022-07-09T04:12:34;46.17;;;28.40;;
43998;SDS011;51319;52.162;5.302;2022-07-09T04:15:01;44.00;;;27.33;;
43998;SDS011;51319;52.162;5.302;2022-07-09T04:17:27;45.45;;;27.60;;
43998;SDS011;51319;52.162;5.302;2022-07-09T04:19:53;45.50;;;28.40;;
43998;SDS011;51319;52.162;5.302;2022-07-09T04:22:20;66.90;;;31.77;;
43998;SDS011;51319;52.162;5.302;2022-07-09T04:24:46;53.00;;;30.60;;
43998;SDS011;51319;52.162;5.302;2022-07-09T04:27:12;43.42;;;27.23;;
43998;SDS011;51319;52.162;5.302;2022-07-09T04:29:39;50.08;;;27.75;;
43998;SDS011;51319;52.162;5.302;2022-07-09T04:32:05;43.95;;;29.25;;
43998;SDS011;51319;52.162;5.302;2022-07-09T04:34:32;46.40;;;29.30;;
43998;SDS011;51319;52.162;5.302;2022-07-09T04:36:59;49.55;;;28.55;;
43998;SDS011;51319;52.162;5.302;2022-07-09T04:39:25;46.13;;;29.02;;
43998;SDS011;51319;52.162;5.302;2022-07-09T04:41:52;42.47;;;28.42;;
43998;SDS011;51319;52.162;5.302;2022-07-09T04:44:19;42.42;;;27.92;;
43998;SDS011;51319;52.162;5.302;2022-07-09T04:46:45;40.92;;;28.67;;
43998;SDS011;51319;52.162;5.302;2022-07-09T04:49:11;38.97;;;27.55;;
43998;SDS011;51319;52.162;5.302;2022-07-09T04:51:38;44.90;;;30.25;;
43998;SDS011;51319;52.162;5.302;2022-07-09T04:54:04;47.90;;;28.88;;
43998;SDS011;51319;52.162;5.302;2022-07-09T04:56:31;40.78;;;29.48;;
43998;SDS011;51319;52.162;5.302;2022-07-09T04:58:57;39.88;;;28.10;;
43998;SDS011;51319;52.162;5.302;2022-07-09T05:01:25;40.80;;;28.60;;
43998;SDS011;51319;52.162;5.302;2022-07-09T05:03:52;42.10;;;29.15;;
43998;SDS011;51319;52.162;5.302;2022-07-09T05:06:19;38.15;;;29.23;;
43998;SDS011;51319;52.162;5.302;2022-07-09T05:08:45;38.58;;;26.98;;
43998;SDS011;51319;52.162;5.302;2022-07-09T05:11:13;40.45;;;27.05;;
43998;SDS011;51319;52.162;5.302;2022-07-09T05:13:43;49.50;;;30.63;;
43998;SDS011;51319;52.162;5.302;2022-07-09T05:16:12;37.75;;;26.50;;
43998;SDS011;51319;52.162;5.302;2022-07-09T05:18:38;36.53;;;26.90;;
43998;SDS011;51319;52.162;5.302;2022-07-09T05:21:05;32.20;;;24.35;;
43998;SDS011;51319;52.162;5.302;2022-07-09T05:23:33;36.30;;;27.52;;
43998;SDS011;51319;52.162;5.302;2022-07-09T05:25:59;34.15;;;25.67;;
43998;SDS011;51319;52.162;5.302;2022-07-09T05:28:26;34.53;;;24.67;;
43998;SDS011;51319;52.162;5.302;2022-07-09T05:30:52;29.80;;;23.02;;
43998;SDS011;51319;52.162;5.302;2022-07-09T05:33:39;36.53;;;25.40;;
43998;SDS011;51319;52.162;5.302;2022-07-09T05:36:07;33.53;;;23.90;;
43998;SDS011;51319;52.162;5.302;2022-07-09T05:38:33;32.17;;;22.58;;
43998;SDS011;51319;52.162;5.302;2022-07-09T05:41:01;33.83;;;23.67;;
43998;SDS011;51319;52.162;5.302;2022-07-09T05:43:28;31.38;;;20.85;;
43998;SDS011;51319;52.162;5.302;2022-07-09T05:45:54;35.38;;;23.85;;
43998;SDS011;51319;52.162;5.302;2022-07-09T05:48:20;25.10;;;19.77;;
43998;SDS011;51319;52.162;5.302;2022-07-09T05:50:48;29.65;;;21.17;;
43998;SDS011;51319;52.162;5.302;2022-07-09T05:53:15;28.65;;;20.15;;
43998;SDS011;51319;52.162;5.302;2022-07-09T05:55:41;27.55;;;20.58;;
43998;SDS011;51319;52.162;5.302;2022-07-09T05:58:08;26.35;;;18.90;;
43998;SDS011;51319;52.162;5.302;2022-07-09T06:00:34;25.45;;;18.35;;
43998;SDS011;51319;52.162;5.302;2022-07-09T06:03:00;26.23;;;18.90;;
43998;SDS011;51319;52.162;5.302;2022-07-09T06:05:26;25.90;;;17.05;;
43998;SDS011;51319;52.162;5.302;2022-07-09T06:07:52;21.25;;;15.52;;
43998;SDS011;51319;52.162;5.302;2022-07-09T06:10:19;18.45;;;15.70;;
43998;SDS011;51319;52.162;5.302;2022-07-09T06:12:46;22.73;;;16.02;;
43998;SDS011;51319;52.162;5.302;2022-07-09T06:15:12;23.42;;;13.93;;
43998;SDS011;51319;52.162;5.302;2022-07-09T06:17:39;21.90;;;13.57;;
43998;SDS011;51319;52.162;5.302;2022-07-09T06:20:05;18.05;;;13.63;;
43998;SDS011;51319;52.162;5.302;2022-07-09T06:22:32;17.88;;;12.63;;
43998;SDS011;51319;52.162;5.302;2022-07-09T06:24:59;17.55;;;12.65;;
43998;SDS011;51319;52.162;5.302;2022-07-09T06:27:25;18.52;;;11.13;;
43998;SDS011;51319;52.162;5.302;2022-07-09T06:29:51;17.92;;;11.55;;
43998;SDS011;51319;52.162;5.302;2022-07-09T06:32:17;16.63;;;10.48;;
43998;SDS011;51319;52.162;5.302;2022-07-09T06:34:44;15.05;;;10.52;;
43998;SDS011;51319;52.162;5.302;2022-07-09T06:37:10;13.35;;;10.18;;
43998;SDS011;51319;52.162;5.302;2022-07-09T06:39:37;11.63;;;9.35;;
43998;SDS011;51319;52.162;5.302;2022-07-09T06:42:14;11.73;;;9.05;;
43998;SDS011;51319;52.162;5.302;2022-07-09T06:44:42;13.73;;;9.50;;
43998;SDS011;51319;52.162;5.302;2022-07-09T06:47:09;15.07;;;10.40;;
43998;SDS011;51319;52.162;5.302;2022-07-09T06:49:36;11.80;;;8.70;;
43998;SDS011;51319;52.162;5.302;2022-07-09T06:52:03;11.48;;;7.78;;
43998;SDS011;51319;52.162;5.302;2022-07-09T06:54:30;11.02;;;8.27;;
43998;SDS011;51319;52.162;5.302;2022-07-09T06:56:56;8.38;;;7.25;;
43998;SDS011;51319;52.162;5.302;2022-07-09T06:59:23;11.35;;;8.43;;
43998;SDS011;51319;52.162;5.302;2022-07-09T07:01:49;11.85;;;7.45;;
43998;SDS011;51319;52.162;5.302;2022-07-09T07:04:16;11.82;;;7.45;;
43998;SDS011;51319;52.162;5.302;2022-07-09T07:06:48;13.18;;;7.43;;
43998;SDS011;51319;52.162;5.302;2022-07-09T07:09:15;10.52;;;7.70;;
43998;SDS011;51319;52.162;5.302;2022-07-09T07:11:47;15.13;;;8.65;;
43998;SDS011;51319;52.162;5.302;2022-07-09T07:14:15;10.18;;;7.90;;
43998;SDS011;51319;52.162;5.302;2022-07-09T07:16:42;15.30;;;8.95;;
43998;SDS011;51319;52.162;5.302;2022-07-09T07:19:09;13.02;;;8.77;;
43998;SDS011;51319;52.162;5.302;2022-07-09T07:21:38;15.60;;;8.00;;
43998;SDS011;51319;52.162;5.302;2022-07-09T07:24:05;13.05;;;6.97;;
43998;SDS011;51319;52.162;5.302;2022-07-09T07:26:33;10.93;;;6.65;;
43998;SDS011;51319;52.162;5.302;2022-07-09T07:29:00;11.00;;;6.70;;
43998;SDS011;51319;52.162;5.302;2022-07-09T07:31:26;8.60;;;6.95;;
43998;SDS011;51319;52.162;5.302;2022-07-09T07:33:53;12.50;;;6.50;;
43998;SDS011;51319;52.162;5.302;2022-07-09T07:36:20;10.05;;;5.38;;
43998;SDS011;51319;52.162;5.302;2022-07-09T07:38:46;9.57;;;5.40;;
43998;SDS011;51319;52.162;5.302;2022-07-09T07:41:13;8.85;;;5.35;;
43998;SDS011;51319;52.162;5.302;2022-07-09T07:43:43;7.50;;;4.97;;
43998;SDS011;51319;52.162;5.302;2022-07-09T07:46:09;8.23;;;5.47;;
43998;SDS011;51319;52.162;5.302;2022-07-09T07:48:36;7.20;;;4.65;;
43998;SDS011;51319;52.162;5.302;2022-07-09T07:51:03;7.85;;;4.35;;
43998;SDS011;51319;52.162;5.302;2022-07-09T07:53:30;10.13;;;4.85;;
43998;SDS011;51319;52.162;5.302;2022-07-09T07:55:58;7.18;;;4.50;;
43998;SDS011;51319;52.162;5.302;2022-07-09T07:58:28;10.75;;;4.80;;
43998;SDS011;51319;52.162;5.302;2022-07-09T08:00:54;6.00;;;4.82;;
43998;SDS011;51319;52.162;5.302;2022-07-09T08:03:20;7.60;;;4.45;;
43998;SDS011;51319;52.162;5.302;2022-07-09T08:05:51;8.50;;;4.03;;
43998;SDS011;51319;52.162;5.302;2022-07-09T08:08:17;11.73;;;4.47;;
43998;SDS011;51319;52.162;5.302;2022-07-09T08:10:47;9.70;;;4.03;;
43998;SDS011;51319;52.162;5.302;2022-07-09T08:13:14;3.25;;;2.70;;
43998;SDS011;51319;52.162;5.302;2022-07-09T08:15:41;5.95;;;2.28;;
43998;SDS011;51319;52.162;5.302;2022-07-09T08:18:07;4.80;;;1.73;;
43998;SDS011;51319;52.162;5.302;2022-07-09T08:20:38;5.60;;;1.60;;
43998;SDS011;51319;52.162;5.302;2022-07-09T08:23:06;2.03;;;1.60;;
43998;SDS011;51319;52.162;5.302;2022-07-09T08:25:36;7.07;;;1.30;;
43998;SDS011;51319;52.162;5.302;2022-07-09T08:28:03;3.38;;;1.20;;
43998;SDS011;51319;52.162;5.302;2022-07-09T08:30:30;4.72;;;1.20;;
43998;SDS011;51319;52.162;5.302;2022-07-09T08:32:56;2.25;;;1.08;;
43998;SDS011;51319;52.162;5.302;2022-07-09T08:35:23;2.05;;;1.00;;
43998;SDS011;51319;52.162;5.302;2022-07-09T08:37:51;5.38;;;1.50;;
43998;SDS011;51319;52.162;5.302;2022-07-09T08:40:18;3.03;;;1.23;;
43998;SDS011;51319;52.162;5.302;2022-07-09T08:42:46;4.85;;;1.38;;
43998;SDS011;51319;52.162;5.302;2022-07-09T08:45:14;2.92;;;1.05;;
43998;SDS011;51319;52.162;5.302;2022-07-09T08:47:43;2.28;;;1.30;;
43998;SDS011;51319;52.162;5.302;2022-07-09T08:50:09;3.33;;;1.65;;
43998;SDS011;51319;52.162;5.302;2022-07-09T08:52:36;5.03;;;1.38;;
43998;SDS011;51319;52.162;5.302;2022-07-09T08:55:05;3.72;;;1.23;;
43998;SDS011;51319;52.162;5.302;2022-07-09T08:57:33;1.98;;;1.20;;
43998;SDS011;51319;52.162;5.302;2022-07-09T09:00:00;3.90;;;1.08;;
43998;SDS011;51319;52.162;5.302;2022-07-09T09:02:37;2.70;;;1.20;;
43998;SDS011;51319;52.162;5.302;2022-07-09T09:05:07;1.77;;;1.08;;
43998;SDS011;51319;52.162;5.302;2022-07-09T09:07:42;1.73;;;0.70;;
43998;SDS011;51319;52.162;5.302;2022-07-09T09:10:19;1.08;;;0.80;;
43998;SDS011;51319;52.162;5.302;2022-07-09T09:12:48;1.40;;;0.82;;
43998;SDS011;51319;52.162;5.302;2022-07-09T09:15:20;4.00;;;1.10;;
43998;SDS011;51319;52.162;5.302;2022-07-09T09:17:50;2.88;;;1.15;;
43998;SDS011;51319;52.162;5.302;2022-07-09T09:20:17;2.40;;;1.15;;
43998;SDS011;51319;52.162;5.302;2022-07-09T09:22:47;2.42;;;0.93;;
43998;SDS011;51319;52.162;5.302;2022-07-09T09:25:25;2.10;;;1.00;;
43998;SDS011;51319;52.162;5.302;2022-07-09T09:27:54;3.35;;;1.20;;
43998;SDS011;51319;52.162;5.302;2022-07-09T09:32:59;1.50;;;1.00;;
43998;SDS011;51319;52.162;5.302;2022-07-09T09:35:27;1.70;;;0.80;;
43998;SDS011;51319;52.162;5.302;2022-07-09T09:37:55;2.88;;;0.80;;
43998;SDS011;51319;52.162;5.302;2022-07-09T09:40:22;3.92;;;0.82;;
43998;SDS011;51319;52.162;5.302;2022-07-09T09:42:51;1.83;;;0.80;;
43998;SDS011;51319;52.162;5.302;2022-07-09T09:45:28;1.55;;;0.70;;
43998;SDS011;51319;52.162;5.302;2022-07-09T09:47:54;2.63;;;1.05;;
43998;SDS011;51319;52.162;5.302;2022-07-09T09:50:24;1.60;;;0.85;;
43998;SDS011;51319;52.162;5.302;2022-07-09T09:52:52;4.18;;;1.05;;
43998;SDS011;51319;52.162;5.302;2022-07-09T09:55:20;2.83;;;1.20;;
43998;SDS011;51319;52.162;5.302;2022-07-09T09:57:50;2.05;;;0.80;;
43998;SDS011;51319;52.162;5.302;2022-07-09T10:00:17;3.15;;;0.70;;
43998;SDS011;51319;52.162;5.302;2022-07-09T10:02:47;4.70;;;0.90;;
43998;SDS011;51319;52.162;5.302;2022-07-09T10:05:14;2.17;;;1.08;;
43998;SDS011;51319;52.162;5.302;2022-07-09T10:07:40;10.00;;;1.30;;
43998;SDS011;51319;52.162;5.302;2022-07-09T10:10:07;2.28;;;0.82;;
43998;SDS011;51319;52.162;5.302;2022-07-09T10:12:40;4.38;;;1.23;;
43998;SDS011;51319;52.162;5.302;2022-07-09T10:15:27;3.75;;;1.02;;
43998;SDS011;51319;52.162;5.302;2022-07-09T10:17:53;6.80;;;1.40;;
43998;SDS011;51319;52.162;5.302;2022-07-09T10:20:30;1.48;;;0.82;;
43998;SDS011;51319;52.162;5.302;2022-07-09T10:22:59;0.57;;;0.57;;
43998;SDS011;51319;52.162;5.302;2022-07-09T10:25:29;2.15;;;0.52;;
43998;SDS011;51319;52.162;5.302;2022-07-09T10:27:56;3.55;;;1.02;;
43998;SDS011;51319;52.162;5.302;2022-07-09T10:30:23;2.22;;;0.70;;
43998;SDS011;51319;52.162;5.302;2022-07-09T10:33:19;2.40;;;0.80;;
43998;SDS011;51319;52.162;5.302;2022-07-09T10:35:49;3.67;;;1.00;;
43998;SDS011;51319;52.162;5.302;2022-07-09T10:38:20;6.10;;;0.82;;
43998;SDS011;51319;52.162;5.302;2022-07-09T10:40:57;5.45;;;1.17;;
43998;SDS011;51319;52.162;5.302;2022-07-09T10:43:40;2.40;;;0.70;;
43998;SDS011;51319;52.162;5.302;2022-07-09T10:46:10;1.98;;;0.80;;
43998;SDS011;51319;52.162;5.302;2022-07-09T10:48:37;3.25;;;1.00;;
43998;SDS011;51319;52.162;5.302;2022-07-09T10:51:04;2.50;;;0.88;;
43998;SDS011;51319;52.162;5.302;2022-07-09T10:53:30;2.60;;;0.68;;
43998;SDS011;51319;52.162;5.302;2022-07-09T10:55:57;2.88;;;0.77;;
43998;SDS011;51319;52.162;5.302;2022-07-09T10:58:25;3.65;;;1.00;;
43998;SDS011;51319;52.162;5.302;2022-07-09T11:01:00;2.55;;;0.60;;
43998;SDS011;51319;52.162;5.302;2022-07-09T11:03:29;5.25;;;0.60;;
43998;SDS011;51319;52.162;5.302;2022-07-09T11:05:56;2.90;;;0.57;;
43998;SDS011;51319;52.162;5.302;2022-07-09T11:08:23;1.02;;;0.50;;
43998;SDS011;51319;52.162;5.302;2022-07-09T11:10:50;3.20;;;0.75;;
43998;SDS011;51319;52.162;5.302;2022-07-09T11:13:16;2.05;;;0.82;;
43998;SDS011;51319;52.162;5.302;2022-07-09T11:15:43;2.15;;;0.70;;
43998;SDS011;51319;52.162;5.302;2022-07-09T11:18:10;2.30;;;0.75;;
43998;SDS011;51319;52.162;5.302;2022-07-09T11:20:46;3.17;;;0.50;;
43998;SDS011;51319;52.162;5.302;2022-07-09T11:23:13;1.48;;;0.63;;
43998;SDS011;51319;52.162;5.302;2022-07-09T11:25:41;2.40;;;0.73;;
43998;SDS011;51319;52.162;5.302;2022-07-09T11:28:08;3.35;;;0.85;;
43998;SDS011;51319;52.162;5.302;2022-07-09T11:30:39;3.92;;;0.90;;
43998;SDS011;51319;52.162;5.302;2022-07-09T11:33:05;7.32;;;0.60;;
43998;SDS011;51319;52.162;5.302;2022-07-09T11:35:35;3.17;;;1.20;;
43998;SDS011;51319;52.162;5.302;2022-07-09T11:38:02;2.70;;;0.70;;
43998;SDS011;51319;52.162;5.302;2022-07-09T11:40:30;2.05;;;0.88;;
43998;SDS011;51319;52.162;5.302;2022-07-09T11:42:56;3.17;;;0.70;;
43998;SDS011;51319;52.162;5.302;2022-07-09T11:45:27;3.95;;;0.73;;
43998;SDS011;51319;52.162;5.302;2022-07-09T11:48:02;1.85;;;0.70;;
43998;SDS011;51319;52.162;5.302;2022-07-09T11:50:33;2.97;;;1.17;;
43998;SDS011;51319;52.162;5.302;2022-07-09T11:53:18;2.10;;;1.08;;
43998;SDS011;51319;52.162;5.302;2022-07-09T11:56:01;6.95;;;1.35;;
43998;SDS011;51319;52.162;5.302;2022-07-09T12:00:55;4.65;;;0.93;;
43998;SDS011;51319;52.162;5.302;2022-07-09T12:03:25;3.55;;;0.82;;
43998;SDS011;51319;52.162;5.302;2022-07-09T12:05:53;4.13;;;1.05;;
43998;SDS011;51319;52.162;5.302;2022-07-09T12:08:26;2.85;;;0.68;;
43998;SDS011;51319;52.162;5.302;2022-07-09T12:10:57;4.15;;;0.90;;
43998;SDS011;51319;52.162;5.302;2022-07-09T12:13:24;3.17;;;1.08;;
43998;SDS011;51319;52.162;5.302;2022-07-09T12:15:51;1.77;;;1.05;;
43998;SDS011;51319;52.162;5.302;2022-07-09T12:18:17;5.70;;;0.80;;
43998;SDS011;51319;52.162;5.302;2022-07-09T12:20:43;2.17;;;0.88;;
43998;SDS011;51319;52.162;5.302;2022-07-09T12:23:09;6.00;;;0.80;;
43998;SDS011;51319;52.162;5.302;2022-07-09T12:25:36;6.85;;;1.15;;
43998;SDS011;51319;52.162;5.302;2022-07-09T12:28:02;2.85;;;0.63;;
43998;SDS011;51319;52.162;5.302;2022-07-09T12:30:28;5.18;;;1.00;;
43998;SDS011;51319;52.162;5.302;2022-07-09T12:32:55;1.20;;;0.40;;
43998;SDS011;51319;52.162;5.302;2022-07-09T12:35:24;3.38;;;0.90;;
43998;SDS011;51319;52.162;5.302;2022-07-09T12:37:51;2.92;;;0.68;;
43998;SDS011;51319;52.162;5.302;2022-07-09T12:40:18;2.70;;;0.73;;
43998;SDS011;51319;52.162;5.302;2022-07-09T12:42:44;3.30;;;0.70;;
43998;SDS011;51319;52.162;5.302;2022-07-09T12:45:14;3.55;;;0.68;;
43998;SDS011;51319;52.162;5.302;2022-07-09T12:47:40;4.78;;;0.88;;
43998;SDS011;51319;52.162;5.302;2022-07-09T12:50:07;4.80;;;0.50;;
43998;SDS011;51319;52.162;5.302;2022-07-09T12:52:34;3.78;;;0.90;;
43998;SDS011;51319;52.162;5.302;2022-07-09T12:55:01;3.08;;;0.90;;
43998;SDS011;51319;52.162;5.302;2022-07-09T12:57:31;2.33;;;0.75;;
43998;SDS011;51319;52.162;5.302;2022-07-09T12:59:59;2.22;;;0.60;;
43998;SDS011;51319;52.162;5.302;2022-07-09T13:02:25;4.00;;;0.90;;
43998;SDS011;51319;52.162;5.302;2022-07-09T13:04:52;4.43;;;0.93;;
43998;SDS011;51319;52.162;5.302;2022-07-09T13:07:19;5.70;;;0.90;;
43998;SDS011;51319;52.162;5.302;2022-07-09T13:09:46;5.55;;;0.77;;
43998;SDS011;51319;52.162;5.302;2022-07-09T13:12:16;6.07;;;0.70;;
43998;SDS011;51319;52.162;5.302;2022-07-09T13:14:45;3.63;;;0.75;;
43998;SDS011;51319;52.162;5.302;2022-07-09T13:17:18;3.90;;;1.00;;
43998;SDS011;51319;52.162;5.302;2022-07-09T13:19:56;3.50;;;1.10;;
43998;SDS011;51319;52.162;5.302;2022-07-09T13:22:22;2.55;;;0.82;;
43998;SDS011;51319;52.162;5.302;2022-07-09T13:24:48;5.72;;;1.10;;
43998;SDS011;51319;52.162;5.302;2022-07-09T13:27:15;4.60;;;0.70;;
43998;SDS011;51319;52.162;5.302;2022-07-09T13:29:44;6.40;;;1.50;;
43998;SDS011;51319;52.162;5.302;2022-07-09T13:32:10;5.10;;;1.00;;
43998;SDS011;51319;52.162;5.302;2022-07-09T13:34:42;4.90;;;1.42;;
43998;SDS011;51319;52.162;5.302;2022-07-09T13:37:12;7.95;;;1.45;;
43998;SDS011;51319;52.162;5.302;2022-07-09T13:39:39;7.47;;;1.27;;
43998;SDS011;51319;52.162;5.302;2022-07-09T13:42:05;8.35;;;1.58;;
43998;SDS011;51319;52.162;5.302;2022-07-09T13:44:31;5.03;;;1.35;;
43998;SDS011;51319;52.162;5.302;2022-07-09T13:46:58;7.78;;;1.27;;
43998;SDS011;51319;52.162;5.302;2022-07-09T13:49:24;6.60;;;1.20;;
43998;SDS011;51319;52.162;5.302;2022-07-09T13:51:50;6.25;;;1.35;;
43998;SDS011;51319;52.162;5.302;2022-07-09T13:54:17;5.72;;;1.13;;
43998;SDS011;51319;52.162;5.302;2022-07-09T13:56:43;5.35;;;1.40;;
43998;SDS011;51319;52.162;5.302;2022-07-09T13:59:09;4.13;;;1.10;;
43998;SDS011;51319;52.162;5.302;2022-07-09T14:01:35;9.55;;;1.30;;
43998;SDS011;51319;52.162;5.302;2022-07-09T14:04:02;4.55;;;1.25;;
43998;SDS011;51319;52.162;5.302;2022-07-09T14:06:29;5.65;;;0.98;;
43998;SDS011;51319;52.162;5.302;2022-07-09T14:09:11;6.15;;;1.40;;
43998;SDS011;51319;52.162;5.302;2022-07-09T14:11:37;4.78;;;1.23;;
43998;SDS011;51319;52.162;5.302;2022-07-09T14:14:04;2.72;;;1.20;;
43998;SDS011;51319;52.162;5.302;2022-07-09T14:16:30;8.70;;;1.73;;
43998;SDS011;51319;52.162;5.302;2022-07-09T14:18:59;4.75;;;1.20;;
43998;SDS011;51319;52.162;5.302;2022-07-09T14:21:25;5.28;;;1.25;;
43998;SDS011;51319;52.162;5.302;2022-07-09T14:23:53;6.38;;;0.95;;
43998;SDS011;51319;52.162;5.302;2022-07-09T14:26:21;3.80;;;1.00;;
43998;SDS011;51319;52.162;5.302;2022-07-09T14:28:49;5.60;;;1.23;;
43998;SDS011;51319;52.162;5.302;2022-07-09T14:31:15;4.75;;;0.88;;
43998;SDS011;51319;52.162;5.302;2022-07-09T14:33:42;6.25;;;1.30;;
43998;SDS011;51319;52.162;5.302;2022-07-09T14:36:08;4.95;;;1.00;;
43998;SDS011;51319;52.162;5.302;2022-07-09T14:38:34;4.15;;;1.10;;
43998;SDS011;51319;52.162;5.302;2022-07-09T14:41:02;3.22;;;0.82;;
43998;SDS011;51319;52.162;5.302;2022-07-09T14:43:28;4.97;;;1.27;;